Old Fields, West Virginia
Current Conditions -  °F | °C
As of 6:15 PM on Friday 31 Oct 2014 (Local Time) from KW99 Reporting Station
Overcast Overcast  
Wind Chill: 49°   Ceiling: 4400
Heat Index: 49°   Visibility: 10mi
Dew Point: 32°   Wind: 0mph
Humidity: 52%   Direction: NA
Pressure: 29.84"   Gusts: NA
Location:  39.14°N, 78.95°W
Report Text: KW99 312215Z AUTO 00000KT 10SM OVC044 10/00 A2984 RMK AO2 T00960002
Loading
Personal Weather Stations






























Interactive Weather Map New forecast layout! Learn more

10-Day Weather Forecast

Advertisements
Track Severe Weather on mobile